createdAt,value
2019-02-09T00:00:21.675Z,993.99
2019-02-09T00:01:21.660Z,993.88
2019-02-09T00:02:21.654Z,993.96
2019-02-09T00:03:21.644Z,993.92
2019-02-09T00:04:21.629Z,993.96
2019-02-09T00:05:21.621Z,993.86
2019-02-09T00:06:21.611Z,993.80
2019-02-09T00:07:21.607Z,993.78
2019-02-09T00:08:21.588Z,993.83
2019-02-09T00:09:21.576Z,994.04
2019-02-09T00:10:21.567Z,994.03
2019-02-09T00:11:21.553Z,993.98
2019-02-09T00:12:21.544Z,993.87
2019-02-09T00:13:21.528Z,993.74
2019-02-09T00:14:21.522Z,993.66
2019-02-09T00:15:21.506Z,993.68
2019-02-09T00:16:21.492Z,993.92
2019-02-09T00:17:21.481Z,993.79
2019-02-09T00:18:21.473Z,993.86
2019-02-09T00:19:21.466Z,993.84
2019-02-09T00:20:21.447Z,993.80
2019-02-09T00:21:21.440Z,993.80
2019-02-09T00:22:21.439Z,993.92
2019-02-09T00:23:21.417Z,993.69
2019-02-09T00:24:21.411Z,993.73
2019-02-09T00:25:21.391Z,993.77
2019-02-09T00:26:21.385Z,993.87
2019-02-09T00:27:21.368Z,993.77
2019-02-09T00:28:21.359Z,993.68
2019-02-09T00:29:21.353Z,993.64
2019-02-09T00:30:21.338Z,993.72
2019-02-09T00:31:21.323Z,993.69
2019-02-09T00:32:21.316Z,993.65
2019-02-09T00:33:21.324Z,993.68
2019-02-09T00:34:21.303Z,993.72
2019-02-09T00:35:21.281Z,993.62
2019-02-09T00:36:21.275Z,993.58
2019-02-09T00:37:21.263Z,993.64
2019-02-09T00:38:21.252Z,993.55
2019-02-09T00:39:21.238Z,993.58
2019-02-09T00:40:21.229Z,993.64
2019-02-09T00:41:21.221Z,993.58
2019-02-09T00:42:21.217Z,993.47
2019-02-09T00:43:21.192Z,993.56
2019-02-09T00:44:21.194Z,993.52
2019-02-09T00:45:21.169Z,993.49
2019-02-09T00:46:21.155Z,993.48
2019-02-09T00:47:21.144Z,993.55
2019-02-09T00:48:21.132Z,993.55
2019-02-09T00:49:21.124Z,993.52
2019-02-09T00:50:21.114Z,993.54
2019-02-09T00:51:21.107Z,993.48
2019-02-09T00:52:21.089Z,993.69
2019-02-09T00:53:21.082Z,993.60
2019-02-09T00:54:21.071Z,993.55
2019-02-09T00:55:21.057Z,993.55
2019-02-09T00:56:21.043Z,993.54
2019-02-09T00:57:21.032Z,993.58
2019-02-09T00:58:21.029Z,993.54
2019-02-09T00:59:21.013Z,993.54
2019-02-09T01:00:21.001Z,993.62
2019-02-09T01:01:20.989Z,993.54
2019-02-09T01:02:20.978Z,993.53
2019-02-09T01:03:20.960Z,993.53
2019-02-09T01:04:20.956Z,993.46
2019-02-09T01:05:20.939Z,993.52
2019-02-09T01:06:20.928Z,993.53
2019-02-09T01:07:20.920Z,993.60
2019-02-09T01:08:20.921Z,993.54
2019-02-09T01:09:20.893Z,993.55
2019-02-09T01:10:20.885Z,993.53
2019-02-09T01:11:20.882Z,993.53
2019-02-09T01:12:20.861Z,993.50
2019-02-09T01:13:20.859Z,993.46
2019-02-09T01:14:20.844Z,993.51
2019-02-09T01:15:20.833Z,993.44
2019-02-09T01:16:21.432Z,993.34
2019-02-09T01:17:20.806Z,993.34
2019-02-09T01:18:20.792Z,993.19
2019-02-09T01:19:20.782Z,993.29
2019-02-09T01:20:20.778Z,993.11
2019-02-09T01:21:20.762Z,993.10
2019-02-09T01:22:20.749Z,993.07
2019-02-09T01:23:20.738Z,993.10
2019-02-09T01:24:20.725Z,993.16
2019-02-09T01:25:20.724Z,993.05
2019-02-09T01:26:20.710Z,993.10
2019-02-09T01:27:20.696Z,993.10
2019-02-09T01:28:20.687Z,993.24
2019-02-09T01:29:20.671Z,993.11
2019-02-09T01:30:20.657Z,993.05
2019-02-09T01:31:20.649Z,992.94
2019-02-09T01:32:20.649Z,992.97
2019-02-09T01:33:20.626Z,992.90
2019-02-09T01:34:20.613Z,992.94
2019-02-09T01:35:20.610Z,992.80
2019-02-09T01:36:20.592Z,992.95
2019-02-09T01:37:20.578Z,992.93
2019-02-09T01:38:20.574Z,992.90
2019-02-09T01:39:20.561Z,992.86
2019-02-09T01:40:20.545Z,992.86
2019-02-09T01:41:20.533Z,992.77
2019-02-09T01:42:20.521Z,992.75
2019-02-09T01:43:20.507Z,992.66
2019-02-09T01:44:20.496Z,992.69
2019-02-09T01:45:20.496Z,992.66
2019-02-09T01:46:20.477Z,992.74
2019-02-09T01:47:20.464Z,992.67
2019-02-09T01:48:20.453Z,992.54
2019-02-09T01:49:20.443Z,992.61
2019-02-09T01:50:20.428Z,992.55
2019-02-09T01:51:20.418Z,992.60
2019-02-09T01:52:20.427Z,992.65
2019-02-09T01:53:20.401Z,992.57
2019-02-09T01:54:20.384Z,992.66
2019-02-09T01:55:20.378Z,992.64
2019-02-09T01:56:20.363Z,992.66
2019-02-09T01:57:20.351Z,992.70
2019-02-09T01:58:20.345Z,992.66
2019-02-09T01:59:20.331Z,992.68
2019-02-09T02:00:20.323Z,992.61
2019-02-09T02:01:20.305Z,992.60
2019-02-09T02:02:20.294Z,992.55
2019-02-09T02:03:20.286Z,992.59
2019-02-09T02:04:20.274Z,992.61
2019-02-09T02:05:20.257Z,992.64
2019-02-09T02:06:20.255Z,992.66
2019-02-09T02:07:20.243Z,992.61
2019-02-09T02:08:20.226Z,992.71
2019-02-09T02:09:20.213Z,992.80
2019-02-09T02:10:20.208Z,992.58
2019-02-09T02:11:20.187Z,992.54
2019-02-09T02:12:20.184Z,992.59
2019-02-09T02:13:20.171Z,992.49
2019-02-09T02:14:20.156Z,992.51
2019-02-09T02:15:20.147Z,992.53
2019-02-09T02:16:20.145Z,992.57
2019-02-09T02:17:20.127Z,992.45
2019-02-09T02:18:20.114Z,992.49
2019-02-09T02:19:20.099Z,992.59
2019-02-09T02:20:20.107Z,992.59
2019-02-09T02:21:20.081Z,992.54
2019-02-09T02:22:20.072Z,992.58
2019-02-09T02:23:20.064Z,992.51
2019-02-09T02:24:20.048Z,992.58
2019-02-09T02:25:20.038Z,992.51
2019-02-09T02:26:20.023Z,992.48
2019-02-09T02:27:20.024Z,992.43
2019-02-09T02:28:20.014Z,992.40
2019-02-09T02:29:19.994Z,992.62
2019-02-09T02:30:22.682Z,992.42
2019-02-09T02:31:19.976Z,992.42
2019-02-09T02:32:19.956Z,992.41
2019-02-09T02:33:19.954Z,992.44
2019-02-09T02:34:19.935Z,992.42
2019-02-09T02:35:19.918Z,992.47
2019-02-09T02:36:19.917Z,992.45
2019-02-09T02:37:19.903Z,992.47
2019-02-09T02:38:19.886Z,992.40
2019-02-09T02:39:19.880Z,992.45
2019-02-09T02:40:19.869Z,992.37
2019-02-09T02:41:19.851Z,992.41
2019-02-09T02:42:19.836Z,992.43
2019-02-09T02:43:19.835Z,992.40
2019-02-09T02:44:19.820Z,992.37
2019-02-09T02:45:19.812Z,992.36
2019-02-09T02:46:19.799Z,992.24
2019-02-09T02:47:19.781Z,992.29
2019-02-09T02:48:19.778Z,992.35
2019-02-09T02:49:19.768Z,992.29
2019-02-09T02:50:19.762Z,992.19
2019-02-09T02:51:19.745Z,992.40
2019-02-09T02:52:19.733Z,992.17
2019-02-09T02:53:19.721Z,992.12
2019-02-09T02:54:19.711Z,991.85
2019-02-09T02:55:19.697Z,991.99
2019-02-09T02:56:19.685Z,992.21
2019-02-09T02:57:19.672Z,992.00
2019-02-09T02:58:19.663Z,992.06
2019-02-09T02:59:19.650Z,991.97
2019-02-09T03:00:19.640Z,992.02
2019-02-09T03:01:19.640Z,991.89
2019-02-09T03:02:19.620Z,991.91
2019-02-09T03:03:19.607Z,991.92
2019-02-09T03:04:19.595Z,991.90
2019-02-09T03:05:19.604Z,992.00
2019-02-09T03:06:19.575Z,991.87
2019-02-09T03:07:19.565Z,991.84
2019-02-09T03:08:19.547Z,991.84
2019-02-09T03:09:19.539Z,991.90
2019-02-09T03:10:19.529Z,992.08
2019-02-09T03:11:19.522Z,991.98
2019-02-09T03:12:19.505Z,992.01
2019-02-09T03:13:19.498Z,992.02
2019-02-09T03:14:19.482Z,991.99
2019-02-09T03:15:19.472Z,991.99
2019-02-09T03:16:19.459Z,992.25
2019-02-09T03:17:19.447Z,992.01
2019-02-09T03:18:19.436Z,991.99
2019-02-09T03:19:19.429Z,992.05
2019-02-09T03:20:19.415Z,991.98
2019-02-09T03:21:19.408Z,991.99
2019-02-09T03:22:19.387Z,991.93
2019-02-09T03:23:19.384Z,991.83
2019-02-09T03:24:19.372Z,991.92
2019-02-09T03:25:19.375Z,991.76
2019-02-09T03:26:19.351Z,991.87
2019-02-09T03:27:19.337Z,991.88
2019-02-09T03:28:19.328Z,991.80
2019-02-09T03:29:19.314Z,991.93
2019-02-09T03:30:19.312Z,991.89
2019-02-09T03:31:19.302Z,991.89
2019-02-09T03:32:19.282Z,991.86
2019-02-09T03:33:19.310Z,991.91
2019-02-09T03:34:19.258Z,991.93
2019-02-09T03:35:19.258Z,991.96
2019-02-09T03:36:19.231Z,991.86
2019-02-09T03:37:19.219Z,991.89
2019-02-09T03:38:19.215Z,991.86
2019-02-09T03:39:19.207Z,991.89
2019-02-09T03:40:19.191Z,991.94
2019-02-09T03:41:19.192Z,991.93
2019-02-09T03:42:19.166Z,991.97
2019-02-09T03:43:19.151Z,992.06
2019-02-09T03:44:19.143Z,992.11
2019-02-09T03:45:19.134Z,992.13
2019-02-09T03:46:19.123Z,992.17
2019-02-09T03:47:19.113Z,992.15
2019-02-09T03:48:19.099Z,992.08
2019-02-09T03:49:19.090Z,992.11
2019-02-09T03:50:19.080Z,992.09
2019-02-09T03:51:19.103Z,992.15
2019-02-09T03:52:19.980Z,992.19
2019-02-09T03:53:19.047Z,992.15
2019-02-09T03:54:19.035Z,992.20
2019-02-09T03:55:19.020Z,992.14
2019-02-09T03:56:19.057Z,992.21
2019-02-09T03:57:18.998Z,992.20
2019-02-09T03:58:19.021Z,992.30
2019-02-09T03:59:18.979Z,992.21
2019-02-09T04:00:18.964Z,992.31
2019-02-09T04:01:18.957Z,992.15
2019-02-09T04:02:18.965Z,992.17
2019-02-09T04:03:18.931Z,992.20
2019-02-09T04:04:18.929Z,992.18
2019-02-09T04:05:18.909Z,992.18
2019-02-09T04:06:18.895Z,992.20
2019-02-09T04:07:18.889Z,992.23
2019-02-09T04:08:18.883Z,992.20
2019-02-09T04:09:18.868Z,992.23
2019-02-09T04:10:18.858Z,992.29
2019-02-09T04:11:18.845Z,992.27
2019-02-09T04:12:18.833Z,992.20
2019-02-09T04:13:18.834Z,992.19
2019-02-09T04:14:18.806Z,992.23
2019-02-09T04:15:18.801Z,992.31
2019-02-09T04:16:18.790Z,992.24
2019-02-09T04:17:18.780Z,992.24
2019-02-09T04:18:18.767Z,992.36
2019-02-09T04:19:18.754Z,992.38
2019-02-09T04:20:18.739Z,992.32
2019-02-09T04:21:18.731Z,992.31
2019-02-09T04:22:18.730Z,992.27
2019-02-09T04:23:18.709Z,992.33
2019-02-09T04:24:18.697Z,992.39
2019-02-09T04:25:18.686Z,992.28
2019-02-09T04:26:18.678Z,992.26
2019-02-09T04:27:18.666Z,992.28
2019-02-09T04:28:18.654Z,992.24
2019-02-09T04:29:18.645Z,992.35
2019-02-09T04:30:18.651Z,992.33
2019-02-09T04:31:18.627Z,992.36
2019-02-09T04:32:18.613Z,992.33
2019-02-09T04:33:18.594Z,992.56
2019-02-09T04:34:33.493Z,992.28
2019-02-09T04:35:18.571Z,992.24
2019-02-09T04:36:18.567Z,992.34
2019-02-09T04:37:18.556Z,992.30
2019-02-09T04:38:18.547Z,992.26
2019-02-09T04:39:18.529Z,992.26
2019-02-09T04:40:18.635Z,992.25
2019-02-09T04:41:18.504Z,992.27
2019-02-09T04:42:18.496Z,992.31
2019-02-09T04:43:18.480Z,992.36
2019-02-09T04:44:18.493Z,992.32
2019-02-09T04:45:20.149Z,992.25
2019-02-09T04:46:18.450Z,992.27
2019-02-09T04:47:18.446Z,992.22
2019-02-09T04:48:18.454Z,992.22
2019-02-09T04:49:18.421Z,992.18
2019-02-09T04:50:18.410Z,992.22
2019-02-09T04:51:18.402Z,992.31
2019-02-09T04:52:18.390Z,992.22
2019-02-09T04:53:18.381Z,992.29
2019-02-09T04:54:18.362Z,992.34
2019-02-09T04:55:18.356Z,992.27
2019-02-09T04:56:18.335Z,992.19
2019-02-09T04:57:18.328Z,992.33
2019-02-09T04:58:18.320Z,992.31
2019-02-09T04:59:18.339Z,992.34
2019-02-09T05:00:18.292Z,992.30
2019-02-09T05:01:18.285Z,992.25
2019-02-09T05:02:18.276Z,992.27
2019-02-09T05:03:18.267Z,992.28
2019-02-09T05:04:18.251Z,992.34
2019-02-09T05:05:20.361Z,992.32
2019-02-09T05:06:18.237Z,992.28
2019-02-09T05:07:18.219Z,992.43
2019-02-09T05:08:18.204Z,992.42
2019-02-09T05:09:18.193Z,992.44
2019-02-09T05:10:18.188Z,992.47
2019-02-09T05:11:18.182Z,992.44
2019-02-09T05:12:18.163Z,992.47
2019-02-09T05:13:18.153Z,992.38
2019-02-09T05:14:18.147Z,992.35
2019-02-09T05:15:18.128Z,992.44
2019-02-09T05:16:18.154Z,992.42
2019-02-09T05:17:18.117Z,992.47
2019-02-09T05:18:18.118Z,992.51
2019-02-09T05:19:18.088Z,992.45
2019-02-09T05:20:18.086Z,992.47
2019-02-09T05:21:18.069Z,992.50
2019-02-09T05:22:18.055Z,992.51
2019-02-09T05:23:18.043Z,992.45
2019-02-09T05:24:18.033Z,992.41
2019-02-09T05:25:18.078Z,992.45
2019-02-09T05:26:18.017Z,992.48
2019-02-09T05:27:17.994Z,992.56
2019-02-09T05:28:17.983Z,992.47
2019-02-09T05:29:17.972Z,992.56
2019-02-09T05:30:17.968Z,992.59
2019-02-09T05:31:23.204Z,992.65
2019-02-09T05:32:17.940Z,992.76
2019-02-09T05:33:17.933Z,992.61
2019-02-09T05:34:17.920Z,992.66
2019-02-09T05:35:17.916Z,992.52
2019-02-09T05:36:17.895Z,992.57
2019-02-09T05:37:17.887Z,992.64
2019-02-09T05:38:17.877Z,992.64
2019-02-09T05:39:17.863Z,992.73
2019-02-09T05:40:17.852Z,992.70
2019-02-09T05:41:17.844Z,992.78
2019-02-09T05:42:17.831Z,992.78
2019-02-09T05:43:17.833Z,992.73
2019-02-09T05:44:17.815Z,992.78
2019-02-09T05:45:17.798Z,992.89
2019-02-09T05:46:17.788Z,992.80
2019-02-09T05:47:17.778Z,992.80
2019-02-09T05:48:17.768Z,992.90
2019-02-09T05:49:17.752Z,992.87
2019-02-09T05:50:17.747Z,992.88
2019-02-09T05:51:17.732Z,992.91
2019-02-09T05:52:17.714Z,992.86
2019-02-09T05:53:17.712Z,993.01
2019-02-09T05:54:17.700Z,992.98
2019-02-09T05:55:17.691Z,993.05
2019-02-09T05:56:17.675Z,992.96
2019-02-09T05:57:17.667Z,993.08
2019-02-09T05:58:17.654Z,993.10
2019-02-09T05:59:17.640Z,993.22
2019-02-09T06:00:17.636Z,993.13
2019-02-09T06:01:17.622Z,993.11
2019-02-09T06:02:17.607Z,993.15
2019-02-09T06:03:17.599Z,993.17
2019-02-09T06:04:17.589Z,993.28
2019-02-09T06:05:17.578Z,993.26
2019-02-09T06:06:17.561Z,993.37
2019-02-09T06:07:17.555Z,993.30
2019-02-09T06:08:17.544Z,993.19
2019-02-09T06:09:17.532Z,993.32
2019-02-09T06:10:17.544Z,993.29
2019-02-09T06:11:19.148Z,993.33
2019-02-09T06:12:17.497Z,993.42
2019-02-09T06:13:17.483Z,993.46
2019-02-09T06:14:17.475Z,993.54
2019-02-09T06:15:17.542Z,993.52
2019-02-09T06:16:17.449Z,993.53
2019-02-09T06:17:17.443Z,993.56
2019-02-09T06:18:17.432Z,993.58
2019-02-09T06:19:17.423Z,993.47
2019-02-09T06:20:17.407Z,993.54
2019-02-09T06:21:17.394Z,993.45
2019-02-09T06:22:17.388Z,993.56
2019-02-09T06:23:17.376Z,993.56
2019-02-09T06:24:17.369Z,993.48
2019-02-09T06:25:17.356Z,993.54
2019-02-09T06:26:17.344Z,993.62
2019-02-09T06:27:17.333Z,993.48
2019-02-09T06:28:17.324Z,993.53
2019-02-09T06:29:17.314Z,993.51
2019-02-09T06:30:17.298Z,993.66
2019-02-09T06:31:17.287Z,993.56
2019-02-09T06:32:17.277Z,993.62
2019-02-09T06:33:17.268Z,993.57
2019-02-09T06:34:17.369Z,993.51
2019-02-09T06:35:17.251Z,993.60
2019-02-09T06:36:17.238Z,993.61
2019-02-09T06:37:17.217Z,993.68
2019-02-09T06:38:17.211Z,993.66
2019-02-09T06:39:17.200Z,993.67
2019-02-09T06:40:17.188Z,993.63
2019-02-09T06:41:17.179Z,993.68
2019-02-09T06:42:17.162Z,993.67
2019-02-09T06:43:17.155Z,993.65
2019-02-09T06:44:17.143Z,993.66
2019-02-09T06:45:17.137Z,993.60
2019-02-09T06:46:17.126Z,993.54
2019-02-09T06:47:17.109Z,993.72
2019-02-09T06:48:17.097Z,993.75
2019-02-09T06:49:17.090Z,993.73
2019-02-09T06:50:17.077Z,993.68
2019-02-09T06:51:17.068Z,993.56
2019-02-09T06:52:17.052Z,993.84
2019-02-09T06:53:17.050Z,993.76
2019-02-09T06:54:17.049Z,993.72
2019-02-09T06:55:17.019Z,993.77
2019-02-09T06:56:17.011Z,993.87
2019-02-09T06:57:17.007Z,993.71
2019-02-09T06:58:16.986Z,993.67
2019-02-09T06:59:16.982Z,993.79
2019-02-09T07:00:16.966Z,993.77
2019-02-09T07:01:16.965Z,993.74
2019-02-09T07:02:16.944Z,993.78
2019-02-09T07:03:16.935Z,993.86
2019-02-09T07:04:16.922Z,993.93
2019-02-09T07:05:16.940Z,993.84
2019-02-09T07:06:16.903Z,993.78
2019-02-09T07:07:16.890Z,993.97
2019-02-09T07:08:16.904Z,993.91
2019-02-09T07:09:16.870Z,993.99
2019-02-09T07:10:16.853Z,993.98
2019-02-09T07:11:16.849Z,994.01
2019-02-09T07:12:16.833Z,993.87
2019-02-09T07:13:16.818Z,993.86
2019-02-09T07:14:16.813Z,993.85
2019-02-09T07:15:16.803Z,993.98
2019-02-09T07:16:16.792Z,993.91
2019-02-09T07:17:16.780Z,993.96
2019-02-09T07:18:16.767Z,993.90
2019-02-09T07:19:16.757Z,993.99
2019-02-09T07:20:16.745Z,993.98
2019-02-09T07:21:16.735Z,994.05
2019-02-09T07:22:16.736Z,994.02
2019-02-09T07:23:16.710Z,994.11
2019-02-09T07:24:16.701Z,994.11
2019-02-09T07:25:16.707Z,994.17
2019-02-09T07:26:16.674Z,994.03
2019-02-09T07:27:16.670Z,994.09
2019-02-09T07:28:16.663Z,994.07
2019-02-09T07:29:16.648Z,994.10
2019-02-09T07:30:16.636Z,994.23
2019-02-09T07:31:17.551Z,994.28
2019-02-09T07:32:16.614Z,994.19
2019-02-09T07:33:16.596Z,994.26
2019-02-09T07:34:16.598Z,994.18
2019-02-09T07:35:16.579Z,994.31
2019-02-09T07:36:16.615Z,994.34
2019-02-09T07:37:16.564Z,994.65
2019-02-09T07:38:16.544Z,994.36
2019-02-09T07:39:16.532Z,994.37
2019-02-09T07:40:16.527Z,994.41
2019-02-09T07:41:16.514Z,994.24
2019-02-09T07:42:16.499Z,994.36
2019-02-09T07:43:16.502Z,994.44
2019-02-09T07:44:16.481Z,994.50
2019-02-09T07:45:16.475Z,994.44
2019-02-09T07:46:16.455Z,994.65
2019-02-09T07:47:16.450Z,994.55
2019-02-09T07:48:16.436Z,994.49
2019-02-09T07:49:16.425Z,994.55
2019-02-09T07:50:16.408Z,994.65
2019-02-09T07:51:16.405Z,994.64
2019-02-09T07:52:16.394Z,994.63
2019-02-09T07:53:16.380Z,994.59
2019-02-09T07:54:16.367Z,994.62
2019-02-09T07:55:16.360Z,994.55
2019-02-09T07:56:16.349Z,994.66
2019-02-09T07:57:16.347Z,994.59
2019-02-09T07:58:16.325Z,994.72
2019-02-09T07:59:16.324Z,994.74
2019-02-09T08:00:16.311Z,994.49
2019-02-09T08:01:16.299Z,994.73
2019-02-09T08:02:16.286Z,994.66
2019-02-09T08:03:16.270Z,994.68
2019-02-09T08:04:16.263Z,994.56
2019-02-09T08:05:16.255Z,994.82
2019-02-09T08:06:16.235Z,994.54
2019-02-09T08:07:16.228Z,994.71
2019-02-09T08:08:16.227Z,994.76
2019-02-09T08:09:16.204Z,994.83
2019-02-09T08:10:16.196Z,994.86
2019-02-09T08:11:16.189Z,994.77
2019-02-09T08:12:16.175Z,994.81
2019-02-09T08:13:16.159Z,994.82
2019-02-09T08:14:16.152Z,994.74
2019-02-09T08:15:16.140Z,994.80
2019-02-09T08:16:16.131Z,994.87
2019-02-09T08:17:16.122Z,994.96
2019-02-09T08:18:16.105Z,994.89
2019-02-09T08:19:16.095Z,994.92
2019-02-09T08:20:16.094Z,995.00
2019-02-09T08:21:16.075Z,994.98
2019-02-09T08:22:16.070Z,994.92
2019-02-09T08:23:16.053Z,994.99
2019-02-09T08:24:16.038Z,995.05
2019-02-09T08:25:16.027Z,995.06
2019-02-09T08:26:16.031Z,995.07
2019-02-09T08:27:23.283Z,995.05
2019-02-09T08:28:16.005Z,995.07
2019-02-09T08:29:15.995Z,995.00
2019-02-09T08:30:15.983Z,995.16
2019-02-09T08:31:15.970Z,995.09
2019-02-09T08:32:15.959Z,995.09
2019-02-09T08:33:15.946Z,995.01
2019-02-09T08:34:15.940Z,995.17
2019-02-09T08:35:15.931Z,995.20
2019-02-09T08:36:15.917Z,994.85
2019-02-09T08:37:15.907Z,994.96
2019-02-09T08:38:15.890Z,994.98
2019-02-09T08:39:15.888Z,995.00
2019-02-09T08:40:15.875Z,995.09
2019-02-09T08:41:15.872Z,994.87
2019-02-09T08:42:15.856Z,994.97
2019-02-09T08:43:15.843Z,995.03
2019-02-09T08:44:15.833Z,994.92
2019-02-09T08:45:15.831Z,994.91
2019-02-09T08:46:15.809Z,995.00
2019-02-09T08:47:15.798Z,995.11
2019-02-09T08:48:15.790Z,995.16
2019-02-09T08:49:15.779Z,995.14
2019-02-09T08:50:15.768Z,995.14
2019-02-09T08:51:15.756Z,995.19
2019-02-09T08:52:15.748Z,995.21
2019-02-09T08:53:15.737Z,995.30
2019-02-09T08:54:15.728Z,995.25
2019-02-09T08:55:15.717Z,995.25
2019-02-09T08:56:15.703Z,995.38
2019-02-09T08:57:15.706Z,995.19
2019-02-09T08:58:15.682Z,995.34
2019-02-09T08:59:15.678Z,995.28
2019-02-09T09:00:15.666Z,995.42
2019-02-09T09:01:15.655Z,995.51
2019-02-09T09:02:20.408Z,995.36
2019-02-09T09:03:15.637Z,995.32
2019-02-09T09:04:15.635Z,995.42
2019-02-09T09:05:15.619Z,995.34
2019-02-09T09:06:15.609Z,995.37
2019-02-09T09:07:15.594Z,995.27
2019-02-09T09:08:15.579Z,995.39
2019-02-09T09:09:15.575Z,995.29
2019-02-09T09:10:15.569Z,995.42
2019-02-09T09:11:15.558Z,995.32
2019-02-09T09:12:15.547Z,995.35
2019-02-09T09:13:15.542Z,995.20
2019-02-09T09:14:15.534Z,995.46
2019-02-09T09:15:15.515Z,995.50
2019-02-09T09:16:15.503Z,995.28
2019-02-09T09:17:15.496Z,995.49
2019-02-09T09:18:15.488Z,995.62
2019-02-09T09:19:15.525Z,995.28
2019-02-09T09:20:15.471Z,995.49
2019-02-09T09:21:15.456Z,995.41
2019-02-09T09:22:15.453Z,995.46
2019-02-09T09:23:15.454Z,995.52
2019-02-09T09:24:15.432Z,995.50
2019-02-09T09:25:15.434Z,995.43
2019-02-09T09:26:15.413Z,995.45
2019-02-09T09:27:15.410Z,995.47
2019-02-09T09:28:15.403Z,995.39
2019-02-09T09:29:15.392Z,995.38
2019-02-09T09:30:15.379Z,995.32
2019-02-09T09:31:15.371Z,995.23
2019-02-09T09:32:15.355Z,995.34
2019-02-09T09:33:15.356Z,995.57
2019-02-09T09:34:15.344Z,995.18
2019-02-09T09:35:15.335Z,994.87
2019-02-09T09:36:15.336Z,995.50
2019-02-09T09:37:15.311Z,995.48
2019-02-09T09:38:15.312Z,995.46
2019-02-09T09:39:15.299Z,995.32
2019-02-09T09:40:15.287Z,995.44
2019-02-09T09:41:15.278Z,995.31
2019-02-09T09:42:15.268Z,995.28
2019-02-09T09:43:15.308Z,995.42
2019-02-09T09:44:15.259Z,995.48
2019-02-09T09:45:15.271Z,995.43
2019-02-09T09:46:15.233Z,995.34
2019-02-09T09:47:15.218Z,995.45
2019-02-09T09:48:15.209Z,995.44
2019-02-09T09:49:15.204Z,995.60
2019-02-09T09:50:16.092Z,995.50
2019-02-09T09:51:15.183Z,995.37
2019-02-09T09:52:15.174Z,995.40
2019-02-09T09:53:15.160Z,995.45
2019-02-09T09:54:15.155Z,995.47
2019-02-09T09:55:15.152Z,995.48
2019-02-09T09:56:15.154Z,995.59
2019-02-09T09:57:15.128Z,995.46
2019-02-09T09:58:15.163Z,995.53
2019-02-09T09:59:15.103Z,995.60
2019-02-09T10:00:15.091Z,995.52
2019-02-09T10:01:15.084Z,995.66
2019-02-09T10:02:15.078Z,995.57
2019-02-09T10:03:15.066Z,995.62
2019-02-09T10:04:15.065Z,995.47
2019-02-09T10:05:15.052Z,995.43
2019-02-09T10:06:15.039Z,995.42
2019-02-09T10:07:15.040Z,995.52
2019-02-09T10:08:15.015Z,995.46
2019-02-09T10:09:15.009Z,995.45
2019-02-09T10:10:14.996Z,995.31
2019-02-09T10:11:14.988Z,995.58
2019-02-09T10:12:14.980Z,995.32
2019-02-09T10:13:14.975Z,995.47
2019-02-09T10:14:14.964Z,995.28
2019-02-09T10:15:14.946Z,995.39
2019-02-09T10:16:14.938Z,995.59
2019-02-09T10:17:14.943Z,995.36
2019-02-09T10:18:14.922Z,995.35
2019-02-09T10:19:14.938Z,995.28
2019-02-09T10:20:14.908Z,995.49
2019-02-09T10:21:14.890Z,995.42
2019-02-09T10:22:15.616Z,995.58
2019-02-09T10:23:14.892Z,995.42
2019-02-09T10:24:14.872Z,995.45
2019-02-09T10:25:14.863Z,995.64
2019-02-09T10:26:14.856Z,995.62
2019-02-09T10:27:14.847Z,995.68
2019-02-09T10:28:14.834Z,995.56
2019-02-09T10:29:14.828Z,995.64
2019-02-09T10:30:14.826Z,995.61
2019-02-09T10:31:15.612Z,995.68
2019-02-09T10:32:14.805Z,995.73
2019-02-09T10:33:14.803Z,995.68
2019-02-09T10:34:14.812Z,995.60
2019-02-09T10:35:14.783Z,995.61
2019-02-09T10:36:14.786Z,995.74
2019-02-09T10:37:14.772Z,995.92
2019-02-09T10:38:14.757Z,995.87
2019-02-09T10:39:14.757Z,995.83
2019-02-09T10:40:14.746Z,995.63
2019-02-09T10:41:14.744Z,995.58
2019-02-09T10:42:14.729Z,995.82
2019-02-09T10:43:14.729Z,995.71
2019-02-09T10:44:14.719Z,995.83
2019-02-09T10:45:14.708Z,995.70
2019-02-09T10:46:14.705Z,995.81
2019-02-09T10:47:14.694Z,995.88
2019-02-09T10:48:14.691Z,995.70
2019-02-09T10:49:14.680Z,995.59
2019-02-09T10:50:14.684Z,995.70
2019-02-09T10:51:14.666Z,995.59
2019-02-09T10:52:14.668Z,995.72
2019-02-09T10:53:14.646Z,995.77
2019-02-09T10:54:14.643Z,995.71
2019-02-09T10:55:14.635Z,995.74
2019-02-09T10:56:14.623Z,995.66
2019-02-09T10:57:14.620Z,995.70
2019-02-09T10:58:14.611Z,995.67
2019-02-09T10:59:14.598Z,995.68
2019-02-09T11:00:14.588Z,995.76
2019-02-09T11:01:14.580Z,995.79
2019-02-09T11:02:14.593Z,995.49
2019-02-09T11:03:14.557Z,995.64
2019-02-09T11:04:14.557Z,995.84
2019-02-09T11:05:14.597Z,995.67
2019-02-09T11:06:14.537Z,995.44
2019-02-09T11:07:14.536Z,995.80
2019-02-09T11:08:14.523Z,995.61
2019-02-09T11:09:14.510Z,995.50
2019-02-09T11:10:14.505Z,995.81
2019-02-09T11:11:14.494Z,995.69
2019-02-09T11:12:14.481Z,995.65
2019-02-09T11:13:14.476Z,995.75
2019-02-09T11:14:14.467Z,996.05
2019-02-09T11:15:14.534Z,995.83
2019-02-09T11:16:14.451Z,995.92
2019-02-09T11:17:14.447Z,995.57
2019-02-09T11:18:14.438Z,995.82
2019-02-09T11:19:14.429Z,995.93
2019-02-09T11:20:14.418Z,995.95
2019-02-09T11:21:14.421Z,995.87
2019-02-09T11:22:14.412Z,995.82
2019-02-09T11:23:14.392Z,995.81
2019-02-09T11:24:14.386Z,995.97
2019-02-09T11:25:14.386Z,995.64
2019-02-09T11:26:14.368Z,995.88
2019-02-09T11:27:14.350Z,995.80
2019-02-09T11:28:14.341Z,995.70
2019-02-09T11:29:14.338Z,995.72
2019-02-09T11:30:14.328Z,995.59
2019-02-09T11:31:14.320Z,995.84
2019-02-09T11:32:14.838Z,995.52
2019-02-09T11:33:14.299Z,995.89
2019-02-09T11:34:14.291Z,995.78
2019-02-09T11:35:14.282Z,995.75
2019-02-09T11:36:14.275Z,995.97
2019-02-09T11:37:14.264Z,996.00
2019-02-09T11:38:14.259Z,995.75
2019-02-09T11:39:14.251Z,995.71
2019-02-09T11:40:14.238Z,995.79
2019-02-09T11:41:14.229Z,995.64
2019-02-09T11:42:14.222Z,995.70
2019-02-09T11:43:14.211Z,995.85
2019-02-09T11:44:14.201Z,995.81
2019-02-09T11:45:14.200Z,995.91
2019-02-09T11:46:14.185Z,995.80
2019-02-09T11:47:14.168Z,995.72
2019-02-09T11:48:14.171Z,995.73
2019-02-09T11:49:14.152Z,995.63
2019-02-09T11:50:14.141Z,995.70
2019-02-09T11:51:14.153Z,995.82
2019-02-09T11:52:14.124Z,995.67
2019-02-09T11:53:14.121Z,995.54
2019-02-09T11:54:14.106Z,995.78
2019-02-09T11:55:15.849Z,995.88
2019-02-09T11:56:14.101Z,995.82
2019-02-09T11:57:14.133Z,995.69
2019-02-09T11:58:14.076Z,995.71
2019-02-09T11:59:14.069Z,995.83
2019-02-09T12:00:14.058Z,995.77
2019-02-09T12:01:14.047Z,995.82
2019-02-09T12:02:14.033Z,995.88
2019-02-09T12:03:16.112Z,995.78
2019-02-09T12:04:14.023Z,996.03
2019-02-09T12:05:14.003Z,995.62
2019-02-09T12:06:13.993Z,995.73
2019-02-09T12:07:13.982Z,995.79
2019-02-09T12:08:13.974Z,995.81
2019-02-09T12:09:13.973Z,995.79
2019-02-09T12:10:13.952Z,995.81
2019-02-09T12:11:13.953Z,995.70
2019-02-09T12:12:13.932Z,995.76
2019-02-09T12:13:13.930Z,995.83
2019-02-09T12:14:13.934Z,995.84
2019-02-09T12:15:13.901Z,995.71
2019-02-09T12:16:13.899Z,995.73
2019-02-09T12:17:13.885Z,995.72
2019-02-09T12:18:13.875Z,995.78
2019-02-09T12:19:13.869Z,995.77
2019-02-09T12:20:13.853Z,995.72
2019-02-09T12:21:13.853Z,995.79
2019-02-09T12:22:13.838Z,995.89
2019-02-09T12:23:13.826Z,995.86
2019-02-09T12:24:13.821Z,995.75
2019-02-09T12:25:13.807Z,996.02
2019-02-09T12:26:13.793Z,995.81
2019-02-09T12:27:13.791Z,995.98
2019-02-09T12:28:13.777Z,995.87